Campanya meteocatpedra

Dades EMA Montserrat - Sant Dimes

?
?
Resum diari 22:30 TU
Dades diàries de l'estació meteorològica
Temperatura mitjana 21.1 °C
Temperatura màxima 25.2 °C 11:13 TU
Temperatura mínima 17.9 °C 0:04 TU
Humitat relativa mitjana 46%
Precipitació acumulada 0.1 mm
Ratxa màxima del vent (6 m) 45.0 km/h - 249º 17:26 TU
Irradiació solar global 29.7 MJ/m2

El tram horari està expressat en Temps Universal (TU). Cal sumar una hora en horari d'hivern i dues en horari d'estiu per passar a l'hora oficial.

Montserrat - Sant Dimes

Metadades estació meteorol´gica
Municipi Monistrol de Montserrat
Comarca Bages
Altitud 916 m
Data alta 02.01.2003
Estat actual Operativa
Dades de període
Període
TU
TM
°C
TX
°C
TN
°C
HRM
%
PPT
mm
VVM (6 m)
km/h
DVM (6 m)
graus
VVX (6 m)
km/h
RS
W/m2
00:00 - 00:30 18.1 18.2 17.9 61 0.0 2.9 237 6.5 0
00:30 - 01:00 18.3 18.4 18.1 59 0.0 4.0 254 9.7 0
01:00 - 01:30 18.6 18.9 18.2 56 0.0 2.5 316 6.8 0
01:30 - 02:00 18.6 18.9 18.5 56 0.0 4.3 321 5.8 0
02:00 - 02:30 18.4 18.7 18.2 57 0.0 6.1 329 9.7 0
02:30 - 03:00 19.0 19.2 18.7 53 0.0 8.3 326 11.9 0
03:00 - 03:30 19.0 19.2 18.7 52 0.0 5.0 298 10.8 0
03:30 - 04:00 18.6 18.9 18.3 54 0.0 7.2 278 11.2 0
04:00 - 04:30 18.6 18.7 18.2 53 0.0 7.6 282 13.0 0
04:30 - 05:00 18.3 18.6 18.2 51 0.0 10.1 264 16.6 24
05:00 - 05:30 18.5 18.8 18.3 50 0.0 10.4 252 18.4 85
05:30 - 06:00 19.2 19.8 18.8 49 0.0 5.8 240 15.5 173
06:00 - 06:30 20.0 20.8 19.4 49 0.0 3.6 220 13.3 270
06:30 - 07:00 20.5 20.9 19.8 49 0.0 2.2 205 10.1 368
07:00 - 07:30 21.1 22.3 20.2 48 0.0 2.2 180 9.0 466
07:30 - 08:00 22.4 23.2 21.8 47 0.0 2.2 126 6.1 560
08:00 - 08:30 23.1 23.9 22.4 45 0.0 2.9 118 6.8 650
08:30 - 09:00 23.1 23.8 22.0 49 0.0 3.2 106 9.4 732
09:00 - 09:30 23.4 24.0 22.6 49 0.0 3.6 76 8.6 775
09:30 - 10:00 23.5 24.4 22.2 49 0.0 2.9 94 8.3 864
10:00 - 10:30 24.3 24.8 23.5 45 0.0 2.5 96 9.0 911
10:30 - 11:00 24.5 24.9 24.1 44 0.0 4.7 86 13.7 946
11:00 - 11:30 24.5 25.2 24.0 45 0.0 4.3 131 14.0 962
11:30 - 12:00 24.4 24.7 24.0 44 0.0 6.8 135 23.8 981
12:00 - 12:30 24.4 24.8 23.9 43 0.0 10.4 154 28.1 953
12:30 - 13:00 24.0 24.4 23.5 43 0.0 14.8 174 35.3 974
13:00 - 13:30 23.6 23.9 23.2 42 0.0 15.1 194 38.9 922
13:30 - 14:00 23.3 23.7 22.8 41 0.0 10.8 234 35.3 879
14:00 - 14:30 23.1 23.7 22.8 40 0.0 10.4 247 31.3 818
14:30 - 15:00 22.7 23.4 22.3 39 0.1 16.2 238 40.7 752
15:00 - 15:30 22.7 23.0 22.5 38 0.0 16.6 248 40.3 675
15:30 - 16:00 22.4 22.8 22.1 38 0.0 16.2 249 40.0 585
16:00 - 16:30 22.1 22.3 21.8 39 0.0 25.2 248 43.9 489
16:30 - 17:00 21.6 21.9 21.2 42 0.0 26.3 248 43.6 389
17:00 - 17:30 20.7 21.2 20.1 49 0.0 28.4 246 45.0 224
17:30 - 18:00 20.0 20.1 19.9 49 0.0 23.0 246 43.6 47
18:00 - 18:30 20.0 20.2 19.8 48 0.0 22.0 246 41.4 34
18:30 - 19:00 20.1 20.4 19.7 46 0.0 21.2 252 34.6 19
19:00 - 19:30 19.7 19.8 19.6 46 0.0 19.8 251 33.1 2
19:30 - 20:00 20.1 20.4 19.4 42 0.0 11.9 247 30.2 0
20:00 - 20:30 20.4 20.5 20.3 39 0.0 9.0 233 22.7 0
20:30 - 21:00 20.7 20.9 20.4 36 0.0 11.2 246 24.1 0
21:00 - 21:30 20.6 20.8 20.3 36 0.0 11.9 256 24.1 0
21:30 - 22:00 20.2 20.5 20.1 38 0.0 11.5 250 24.5 0
22:00 - 22:30 20.1 20.4 19.8 40 0.0 9.4 266 19.8 0
22:30 - 23:00 20.2 20.5 20.0 41 0.0 7.6 259 16.9 0
23:00 - 23:30 (s/d) (s/d) (s/d) (s/d) (s/d) (s/d) (s/d) (s/d) (s/d)

Les dades en taronja només han passat un control de qualitat automàtic. Resta pendent la seva validació definitiva.